Time;durP1;ratioP1;P1;durP2;ratioP2;P2;SDS_P1;SDS_P2;PMS_P1;PMS_P2;Temp;Humidity;BMP_temperature;BMP_pressure;BME280_temperature;BME280_humidity;BME280_pressure;Samples;Min_cycle;Max_cycle;Signal;HPM_P1;HPM_P2
2023/12/05 00:00:32;;;;;;;4.10;2.95;;;4.20;99.90;;;;;;4956277;29;20443;-92
2023/12/05 00:02:58;;;;;;;6.93;3.72;;;4.30;99.90;;;;;;4940096;29;20055;-92
2023/12/05 00:05:23;;;;;;;5.28;3.47;;;4.30;99.90;;;;;;4940082;29;20038;-92
2023/12/05 00:07:50;;;;;;;3.85;3.05;;;4.30;99.90;;;;;;4939850;29;20050;-92
2023/12/05 00:10:16;;;;;;;5.07;3.28;;;4.30;99.90;;;;;;4939955;29;20024;-92
2023/12/05 00:12:42;;;;;;;5.15;3.72;;;4.30;99.90;;;;;;4956831;29;20023;-92
2023/12/05 00:15:08;;;;;;;7.15;3.55;;;4.30;99.90;;;;;;4957507;29;20027;-91
2023/12/05 00:17:36;;;;;;;5.68;3.90;;;4.30;99.90;;;;;;4956333;29;20055;-91
2023/12/05 00:20:03;;;;;;;6.18;3.95;;;4.30;99.90;;;;;;4939139;29;20587;-92
2023/12/05 00:22:29;;;;;;;4.93;3.53;;;4.30;99.90;;;;;;4940226;29;20443;-93
2023/12/05 00:24:55;;;;;;;9.82;4.70;;;4.30;99.90;;;;;;4941017;29;20039;-91
2023/12/05 00:27:23;;;;;;;7.35;4.60;;;4.30;99.90;;;;;;4940592;29;20023;-92
2023/12/05 00:29:49;;;;;;;6.47;4.50;;;4.30;99.90;;;;;;4938848;29;20391;-93
2023/12/05 00:32:15;;;;;;;8.90;5.50;;;4.30;99.90;;;;;;4952268;29;20122;-92
2023/12/05 00:34:46;;;;;;;8.02;5.35;;;4.30;99.90;;;;;;4929015;29;20462;-92
2023/12/05 00:37:11;;;;;;;7.82;5.78;;;4.30;99.90;;;;;;4922673;29;20034;-92
2023/12/05 00:39:37;;;;;;;9.18;5.50;;;4.30;99.90;;;;;;4938214;29;20035;-93
2023/12/05 00:42:03;;;;;;;8.02;5.28;;;4.30;99.90;;;;;;4938027;29;20020;-92
2023/12/05 00:44:29;;;;;;;8.68;5.57;;;4.30;99.90;;;;;;4938276;29;20486;-93
2023/12/05 00:46:54;;;;;;;10.25;6.40;;;4.30;99.90;;;;;;4932672;29;20027;-92
2023/12/05 00:49:20;;;;;;;9.90;6.55;;;4.40;99.90;;;;;;4953177;29;20028;-90
2023/12/05 00:51:46;;;;;;;13.48;5.80;;;4.40;99.90;;;;;;4953480;29;20032;-91
2023/12/05 00:54:27;;;;;;;9.30;5.65;;;4.40;99.90;;;;;;4940293;29;20020;-91
2023/12/05 00:56:53;;;;;;;11.20;6.60;;;4.40;99.90;;;;;;4941275;29;20028;-92
2023/12/05 00:59:19;;;;;;;13.32;6.40;;;4.40;99.90;;;;;;4942343;29;20015;-93
2023/12/05 01:01:45;;;;;;;9.02;5.63;;;4.40;99.90;;;;;;4921336;29;20105;-92
2023/12/05 01:04:13;;;;;;;9.45;5.07;;;4.40;99.90;;;;;;4940984;29;20032;-91
2023/12/05 01:06:39;;;;;;;6.55;4.32;;;4.40;99.90;;;;;;4940105;29;20047;-92
2023/12/05 01:09:06;;;;;;;5.85;3.90;;;4.40;99.90;;;;;;4955162;29;20038;-92
2023/12/05 01:11:32;;;;;;;6.80;4.05;;;4.40;99.90;;;;;;4922294;29;20035;-92
2023/12/05 01:13:58;;;;;;;7.65;4.18;;;4.40;99.90;;;;;;4921086;29;20384;-92
2023/12/05 01:16:23;;;;;;;7.45;3.78;;;4.40;99.90;;;;;;4920518;29;20047;-91
2023/12/05 01:18:49;;;;;;;6.30;4.60;;;4.40;99.90;;;;;;4920025;29;20134;-91
2023/12/05 01:21:15;;;;;;;6.65;4.22;;;4.40;99.90;;;;;;4920044;29;20027;-91
2023/12/05 01:23:41;;;;;;;6.55;4.15;;;4.50;99.90;;;;;;4920116;29;20031;-91
2023/12/05 01:26:07;;;;;;;4.20;2.85;;;4.40;99.90;;;;;;4920275;29;20058;-90
2023/12/05 01:28:33;;;;;;;4.88;3.53;;;4.40;99.90;;;;;;4925754;29;20027;-91
2023/12/05 01:30:58;;;;;;;5.07;3.10;;;4.40;99.90;;;;;;4934033;28;20027;-91
2023/12/05 01:33:24;;;;;;;5.60;3.25;;;4.40;99.90;;;;;;4945210;29;20063;-91
2023/12/05 01:35:51;;;;;;;5.70;3.22;;;4.40;99.90;;;;;;4923305;29;20150;-90
2023/12/05 01:38:18;;;;;;;4.38;2.80;;;4.40;99.90;;;;;;4920603;29;20198;-91
2023/12/05 01:40:44;;;;;;;6.50;3.35;;;4.40;99.90;;;;;;4919605;29;20150;-92
2023/12/05 01:43:10;;;;;;;5.68;3.22;;;4.40;99.90;;;;;;4922586;29;20019;-91
2023/12/05 01:45:37;;;;;;;7.78;5.25;;;4.40;99.90;;;;;;4931696;29;20071;-92
2023/12/05 01:48:04;;;;;;;9.57;3.88;;;4.40;99.90;;;;;;4948660;29;20114;-91
2023/12/05 01:50:31;;;;;;;6.40;3.10;;;4.40;99.90;;;;;;4939853;29;20020;-91
2023/12/05 01:53:02;;;;;;;7.43;3.65;;;4.40;99.90;;;;;;4944039;28;20031;-91
2023/12/05 01:55:29;;;;;;;7.10;3.55;;;4.40;99.90;;;;;;4930699;29;20628;-92
2023/12/05 01:57:55;;;;;;;6.00;3.80;;;4.40;99.90;;;;;;4947516;28;20032;-92
2023/12/05 02:00:23;;;;;;;11.70;4.45;;;4.40;99.90;;;;;;4926063;29;20138;-92
2023/12/05 02:02:50;;;;;;;6.75;3.80;;;4.40;99.90;;;;;;4921824;29;20372;-92
2023/12/05 02:05:17;;;;;;;8.00;3.70;;;4.40;99.90;;;;;;4912157;29;20480;-92
2023/12/05 02:07:42;;;;;;;6.78;3.70;;;4.40;99.90;;;;;;4926825;29;20023;-92
2023/12/05 02:10:10;;;;;;;9.05;4.00;;;4.40;99.90;;;;;;4928711;29;20035;-93
2023/12/05 02:12:39;;;;;;;10.73;3.95;;;4.40;99.90;;;;;;4925813;29;20555;-92
2023/12/05 02:15:07;;;;;;;10.90;4.53;;;4.40;99.90;;;;;;4926168;29;20135;-92
2023/12/05 02:17:58;;;;;;;13.73;5.00;;;4.40;99.90;;;;;;4929094;29;20048;-92
2023/12/05 02:20:40;;;;;;;14.75;4.55;;;4.40;99.90;;;;;;4928082;29;20039;-91
2023/12/05 02:23:57;;;;;;;7.90;3.60;;;4.40;99.90;;;;;;4928626;29;20027;-91
2023/12/05 02:26:47;;;;;;;14.35;5.20;;;4.30;99.90;;;;;;4860308;29;20210;-91
2023/12/05 02:29:13;;;;;;;12.95;4.38;;;4.30;99.90;;;;;;4871030;29;20041;-90
2023/12/05 02:31:38;;;;;;;9.90;4.32;;;4.30;99.90;;;;;;4863608;29;20034;-92
2023/12/05 02:34:04;;;;;;;13.48;4.45;;;4.30;99.90;;;;;;4875688;29;20029;-91
2023/12/05 02:36:50;;;;;;;14.68;4.80;;;4.30;99.90;;;;;;4861025;29;20065;-91
2023/12/05 02:39:25;;;;;;;11.05;4.10;;;4.30;99.90;;;;;;4876443;29;20029;-91
2023/12/05 02:41:56;;;;;;;15.50;5.03;;;4.30;99.90;;;;;;4850230;29;20041;-92
2023/12/05 02:44:27;;;;;;;14.65;4.97;;;4.30;99.90;;;;;;4874441;29;20029;-91
2023/12/05 02:46:53;;;;;;;9.55;3.65;;;4.30;99.90;;;;;;4852976;29;20018;-91
2023/12/05 02:49:19;;;;;;;18.73;5.43;;;4.30;99.90;;;;;;4878328;29;20100;-91
2023/12/05 02:51:46;;;;;;;11.18;5.10;;;4.30;99.90;;;;;;4863900;29;20385;-91
2023/12/05 02:54:12;;;;;;;18.40;6.55;;;4.30;99.90;;;;;;4863891;29;20032;-91
2023/12/05 02:56:38;;;;;;;9.55;4.45;;;4.30;99.90;;;;;;4858946;29;20042;-91
2023/12/05 02:59:04;;;;;;;10.05;4.82;;;4.30;99.90;;;;;;4863468;29;20037;-91
2023/12/05 03:01:35;;;;;;;16.60;4.50;;;4.30;99.90;;;;;;4876909;29;20487;-91
2023/12/05 03:04:03;;;;;;;12.57;4.72;;;4.30;99.90;;;;;;4930933;29;20023;-92
2023/12/05 03:06:29;;;;;;;8.27;3.85;;;4.30;99.90;;;;;;4931487;29;20035;-92
2023/12/05 03:08:56;;;;;;;12.75;5.40;;;4.30;99.90;;;;;;4913714;29;20031;-90
2023/12/05 03:11:23;;;;;;;10.23;3.83;;;4.30;99.90;;;;;;4931507;29;20063;-91
2023/12/05 03:13:59;;;;;;;8.57;4.00;;;4.30;99.90;;;;;;4927470;29;20031;-91
2023/12/05 03:16:24;;;;;;;13.07;5.15;;;4.30;99.90;;;;;;4928005;29;20043;-91
2023/12/05 03:18:51;;;;;;;13.95;4.10;;;4.20;99.90;;;;;;4932584;29;20040;-91
2023/12/05 03:21:20;;;;;;;8.50;3.80;;;4.20;99.90;;;;;;4952168;29;20035;-91
2023/12/05 03:23:46;;;;;;;8.82;3.80;;;4.20;99.90;;;;;;4946733;29;20020;-91
2023/12/05 03:26:19;;;;;;;8.73;3.97;;;4.20;99.90;;;;;;4935065;29;20042;-91
2023/12/05 03:28:45;;;;;;;21.25;5.75;;;4.20;99.90;;;;;;4928864;29;20731;-91
2023/12/05 03:31:12;;;;;;;10.27;3.47;;;4.20;99.90;;;;;;4926468;29;20034;-90
2023/12/05 03:33:38;;;;;;;13.02;3.65;;;4.20;99.90;;;;;;4932144;29;20035;-90
2023/12/05 03:36:04;;;;;;;15.82;4.15;;;4.20;99.90;;;;;;4926730;29;20054;-91
2023/12/05 03:38:30;;;;;;;15.07;4.15;;;4.30;99.90;;;;;;4934602;29;20019;-90
2023/12/05 03:40:56;;;;;;;16.02;4.95;;;4.30;99.90;;;;;;4946225;29;20049;-92
2023/12/05 03:43:22;;;;;;;13.00;4.50;;;4.20;99.90;;;;;;4910980;29;20110;-90
2023/12/05 03:45:48;;;;;;;12.73;3.90;;;4.30;99.90;;;;;;4929135;29;20027;-91
2023/12/05 03:48:14;;;;;;;15.55;5.28;;;4.30;99.90;;;;;;4928732;29;20067;-91
2023/12/05 03:50:40;;;;;;;10.55;4.22;;;4.30;99.90;;;;;;4929756;29;20035;-92
2023/12/05 03:53:06;;;;;;;10.05;4.50;;;4.30;99.90;;;;;;4931840;29;20024;-91
2023/12/05 03:55:34;;;;;;;14.85;4.50;;;4.30;99.90;;;;;;4951746;28;20058;-92
2023/12/05 03:57:59;;;;;;;13.70;4.28;;;4.30;99.90;;;;;;4949392;29;20019;-90
2023/12/05 04:00:25;;;;;;;16.50;4.50;;;4.30;99.90;;;;;;4929641;29;20034;-91
2023/12/05 04:02:51;;;;;;;11.95;4.75;;;4.30;99.90;;;;;;4931871;29;20023;-91
2023/12/05 04:05:17;;;;;;;10.50;4.13;;;4.30;99.90;;;;;;4949132;28;20193;-91
2023/12/05 04:07:43;;;;;;;15.63;3.58;;;4.30;99.90;;;;;;4933353;29;20027;-89
2023/12/05 04:10:12;;;;;;;11.73;3.65;;;4.30;99.90;;;;;;4933988;29;20122;-90
2023/12/05 04:12:40;;;;;;;8.60;3.95;;;4.30;99.90;;;;;;4932720;29;20031;-90
2023/12/05 04:15:07;;;;;;;6.28;3.05;;;4.30;99.90;;;;;;4946559;29;20068;-90
2023/12/05 04:17:34;;;;;;;7.95;3.58;;;4.30;99.90;;;;;;4931646;29;20627;-89
2023/12/05 04:20:00;;;;;;;8.68;3.70;;;4.30;99.90;;;;;;4931833;29;20110;-90
2023/12/05 04:22:26;;;;;;;11.75;5.45;;;4.30;99.90;;;;;;4926970;29;20031;-90
2023/12/05 04:24:52;;;;;;;11.13;3.85;;;4.30;99.90;;;;;;4926036;29;20448;-90
2023/12/05 04:27:18;;;;;;;8.45;3.63;;;4.30;99.90;;;;;;4924960;29;20111;-91
2023/12/05 04:29:45;;;;;;;8.70;2.88;;;4.30;99.90;;;;;;4931143;29;20039;-91
2023/12/05 04:32:11;;;;;;;8.63;3.00;;;4.30;99.90;;;;;;4931809;29;20026;-90
2023/12/05 04:34:43;;;;;;;9.50;3.63;;;4.30;99.90;;;;;;4933840;29;20033;-90
2023/12/05 04:37:09;;;;;;;11.23;3.50;;;4.30;99.90;;;;;;4929228;29;20032;-92
2023/12/05 04:39:35;;;;;;;9.65;3.28;;;4.30;99.90;;;;;;4924192;29;20043;-92
2023/12/05 04:42:01;;;;;;;6.13;3.00;;;4.30;99.90;;;;;;4937263;29;20027;-92
2023/12/05 04:44:29;;;;;;;7.95;3.60;;;4.30;99.90;;;;;;4932004;29;20078;-92
2023/12/05 04:47:12;;;;;;;8.52;3.05;;;4.30;99.90;;;;;;4950498;28;20031;-91
2023/12/05 04:49:38;;;;;;;11.82;4.85;;;4.30;99.90;;;;;;4931539;29;20031;-92
2023/12/05 04:52:04;;;;;;;10.18;3.33;;;4.30;99.90;;;;;;4928707;29;20024;-93
2023/12/05 04:54:30;;;;;;;11.65;4.25;;;4.30;99.90;;;;;;4920895;29;20023;-92
2023/12/05 04:56:57;;;;;;;13.82;3.83;;;4.30;99.90;;;;;;4928316;29;20126;-92
2023/12/05 04:59:26;;;;;;;10.43;3.33;;;4.30;99.90;;;;;;4933417;29;20214;-92
2023/12/05 05:01:53;;;;;;;8.15;3.50;;;4.30;99.90;;;;;;4922747;29;20055;-92
2023/12/05 05:04:20;;;;;;;7.90;3.95;;;4.30;99.90;;;;;;4943786;29;20028;-91
2023/12/05 05:06:46;;;;;;;9.27;3.33;;;4.30;99.90;;;;;;4911395;29;20392;-92
2023/12/05 05:09:12;;;;;;;9.68;3.60;;;4.30;99.90;;;;;;4931337;29;20471;-92
2023/12/05 05:11:37;;;;;;;6.97;2.97;;;4.30;99.90;;;;;;4928515;29;20486;-92
2023/12/05 05:14:03;;;;;;;7.10;3.28;;;4.30;99.90;;;;;;4931245;29;20511;-91
2023/12/05 05:16:29;;;;;;;7.32;3.30;;;4.30;99.90;;;;;;4917114;29;20042;-90
2023/12/05 05:18:59;;;;;;;6.10;3.15;;;4.30;99.90;;;;;;4932462;29;20058;-89
2023/12/05 05:21:27;;;;;;;7.55;3.75;;;4.30;99.90;;;;;;4924879;29;20027;-91
2023/12/05 05:23:56;;;;;;;11.75;3.30;;;4.30;99.90;;;;;;4933018;29;20031;-90
2023/12/05 05:26:25;;;;;;;8.25;3.22;;;4.30;99.90;;;;;;4932181;29;20023;-90
2023/12/05 05:28:51;;;;;;;8.57;2.97;;;4.30;99.90;;;;;;4950695;29;20038;-88
2023/12/05 05:31:16;;;;;;;8.18;2.90;;;4.20;99.90;;;;;;4940578;28;20027;-90
2023/12/05 05:33:43;;;;;;;7.32;3.42;;;4.20;99.90;;;;;;4952020;29;20483;-92
2023/12/05 05:36:09;;;;;;;7.88;2.75;;;4.20;99.90;;;;;;4925045;29;20487;-91
2023/12/05 05:38:34;;;;;;;8.80;2.75;;;4.20;99.90;;;;;;4936781;29;20035;-91
2023/12/05 05:41:05;;;;;;;6.60;3.00;;;4.20;99.90;;;;;;4940130;29;20023;-91
2023/12/05 05:43:31;;;;;;;8.70;3.05;;;4.20;99.90;;;;;;4927191;29;20103;-89
2023/12/05 05:45:56;;;;;;;6.30;2.53;;;4.20;99.90;;;;;;4950548;29;20031;-91
2023/12/05 05:48:22;;;;;;;6.40;2.30;;;4.20;99.90;;;;;;4947549;29;20028;-91
2023/12/05 05:50:48;;;;;;;7.22;2.45;;;4.20;99.90;;;;;;4921018;29;20436;-90
2023/12/05 05:53:14;;;;;;;3.97;2.47;;;4.20;99.90;;;;;;4919454;29;20026;-92
2023/12/05 05:55:40;;;;;;;8.73;3.15;;;4.20;99.90;;;;;;4920841;29;20353;-92
2023/12/05 05:58:09;;;;;;;4.72;2.40;;;4.20;99.90;;;;;;4920959;29;20079;-91
2023/12/05 06:00:35;;;;;;;5.57;2.70;;;4.20;99.90;;;;;;4921445;29;20031;-91
2023/12/05 06:03:01;;;;;;;5.13;2.20;;;4.20;99.90;;;;;;4919323;29;20058;-90
2023/12/05 06:05:26;;;;;;;3.83;2.10;;;4.20;99.90;;;;;;4918349;29;20115;-90
2023/12/05 06:07:52;;;;;;;5.22;1.90;;;4.20;99.90;;;;;;4922488;29;20031;-91
2023/12/05 06:10:18;;;;;;;3.95;1.95;;;4.20;99.90;;;;;;4923259;29;20023;-91
2023/12/05 06:12:44;;;;;;;4.45;1.63;;;4.20;99.90;;;;;;4918485;29;20031;-91
2023/12/05 06:15:09;;;;;;;8.05;1.80;;;4.20;99.90;;;;;;4919282;29;20043;-91
2023/12/05 06:17:35;;;;;;;4.90;3.15;;;4.20;99.90;;;;;;4919218;29;20404;-91
2023/12/05 06:20:02;;;;;;;4.15;1.80;;;4.20;99.90;;;;;;4924321;29;20578;-91
2023/12/05 06:22:27;;;;;;;4.68;1.85;;;4.20;99.90;;;;;;4926162;29;20019;-91
2023/12/05 06:24:53;;;;;;;3.95;1.60;;;4.20;99.90;;;;;;4925658;29;20480;-92
2023/12/05 06:27:20;;;;;;;4.05;2.10;;;4.20;99.90;;;;;;4924899;29;20027;-92
2023/12/05 06:29:46;;;;;;;4.32;1.95;;;4.10;99.90;;;;;;4923586;29;20071;-92
2023/12/05 06:32:12;;;;;;;6.07;2.28;;;4.20;99.90;;;;;;4923346;29;20054;-92
2023/12/05 06:34:37;;;;;;;4.85;2.03;;;4.20;99.90;;;;;;4922516;29;20436;-92
2023/12/05 06:37:03;;;;;;;3.90;1.67;;;4.20;99.90;;;;;;4922509;29;20038;-91
2023/12/05 06:39:29;;;;;;;4.82;2.10;;;4.20;99.90;;;;;;4923036;29;20502;-91
2023/12/05 06:41:55;;;;;;;3.78;1.95;;;4.20;99.90;;;;;;4922320;29;20028;-91
2023/12/05 06:44:20;;;;;;;8.38;2.53;;;4.20;99.90;;;;;;4922472;29;20467;-91
2023/12/05 06:46:46;;;;;;;3.65;1.90;;;4.20;99.90;;;;;;4922055;29;20491;-92
2023/12/05 06:49:13;;;;;;;8.05;2.55;;;4.20;99.90;;;;;;4922355;29;20020;-91
2023/12/05 06:51:55;;;;;;;8.73;2.67;;;4.20;99.90;;;;;;4921901;29;20055;-91
2023/12/05 06:54:22;;;;;;;9.10;2.58;;;4.20;99.90;;;;;;4920065;29;21155;-91
2023/12/05 06:56:47;;;;;;;5.25;2.60;;;4.20;99.90;;;;;;4936653;29;20227;-91
2023/12/05 06:59:14;;;;;;;7.13;2.72;;;4.20;99.90;;;;;;4921782;29;20020;-91
2023/12/05 07:01:40;;;;;;;8.15;3.60;;;4.20;99.90;;;;;;4921594;29;20035;-91
2023/12/05 07:04:07;;;;;;;7.10;3.08;;;4.20;99.90;;;;;;4918080;29;20507;-91
2023/12/05 07:06:33;;;;;;;7.00;3.55;;;4.30;99.90;;;;;;4920005;29;20024;-91
2023/12/05 07:08:59;;;;;;;11.00;4.50;;;4.30;99.90;;;;;;4920979;29;20511;-92
2023/12/05 07:11:28;;;;;;;6.03;2.80;;;4.30;99.90;;;;;;4921978;29;20114;-92
2023/12/05 07:13:54;;;;;;;10.77;3.70;;;4.30;99.90;;;;;;4921311;29;20023;-93
2023/12/05 07:16:20;;;;;;;9.27;3.45;;;4.30;99.90;;;;;;4922260;29;20031;-92
2023/12/05 07:18:46;;;;;;;10.25;3.83;;;4.30;99.90;;;;;;4922706;29;20044;-92
2023/12/05 07:21:12;;;;;;;10.05;4.05;;;4.40;99.90;;;;;;4925078;29;20047;-95
2023/12/05 07:23:37;;;;;;;9.57;4.03;;;4.30;99.90;;;;;;4937334;29;20028;-91
2023/12/05 07:26:04;;;;;;;13.00;4.72;;;4.40;99.90;;;;;;4927191;29;20498;-93
2023/12/05 07:28:29;;;;;;;14.55;4.45;;;4.40;99.90;;;;;;4924373;29;20131;-94
2023/12/05 07:30:55;;;;;;;14.82;5.10;;;4.40;99.90;;;;;;4938142;29;20043;-96
2023/12/05 07:33:21;;;;;;;12.63;4.93;;;4.40;99.90;;;;;;4910055;29;20062;-94
2023/12/05 07:35:47;;;;;;;13.73;5.43;;;4.40;99.90;;;;;;4917901;29;20071;-92
2023/12/05 07:38:13;;;;;;;20.65;6.43;;;4.40;99.90;;;;;;4922168;29;20031;-93
2023/12/05 07:40:41;;;;;;;14.70;5.43;;;4.40;99.90;;;;;;4922285;29;20027;-95
2023/12/05 07:43:07;;;;;;;24.05;7.22;;;4.40;99.90;;;;;;4921544;29;20079;-93
2023/12/05 07:45:34;;;;;;;16.67;6.78;;;4.40;99.90;;;;;;4921314;29;20081;-94
2023/12/05 07:47:59;;;;;;;13.05;6.38;;;4.40;99.90;;;;;;4921872;29;20031;-93
2023/12/05 07:50:25;;;;;;;16.55;5.47;;;4.40;99.90;;;;;;4921322;29;20415;-93
2023/12/05 07:52:52;;;;;;;16.30;5.80;;;4.40;99.90;;;;;;4953843;29;20419;-93
2023/12/05 07:55:21;;;;;;;17.33;6.53;;;4.40;99.90;;;;;;4940083;29;20102;-93
2023/12/05 07:57:47;;;;;;;19.02;5.30;;;4.40;99.90;;;;;;4922437;29;20046;-93
2023/12/05 08:00:18;;;;;;;17.98;5.68;;;4.40;99.90;;;;;;4921775;29;20031;-93
2023/12/05 08:02:45;;;;;;;20.80;6.28;;;4.40;99.90;;;;;;4921783;29;20074;-93
2023/12/05 08:05:13;;;;;;;18.75;6.93;;;4.30;99.90;;;;;;4922120;29;20047;-94
2023/12/05 08:07:39;;;;;;;17.50;5.57;;;4.40;99.90;;;;;;4955987;29;20134;-93
2023/12/05 08:10:06;;;;;;;12.73;5.13;;;4.40;99.90;;;;;;4925040;29;20107;-95
2023/12/05 08:12:36;;;;;;;13.35;5.00;;;4.40;99.90;;;;;;4943260;29;20127;-91
2023/12/05 08:15:04;;;;;;;21.30;7.03;;;4.40;99.90;;;;;;4961230;29;20019;-93
2023/12/05 08:17:30;;;;;;;15.45;5.13;;;4.40;99.90;;;;;;4928609;29;20055;-94
2023/12/05 08:19:59;;;;;;;17.17;5.10;;;4.50;99.90;;;;;;4904172;29;20119;-94
2023/12/05 08:22:26;;;;;;;22.63;5.75;;;4.50;99.90;;;;;;4919418;29;20028;-93
2023/12/05 08:24:52;;;;;;;15.32;5.03;;;4.50;99.90;;;;;;4909430;29;20023;-94
2023/12/05 08:27:19;;;;;;;16.40;6.47;;;4.50;99.90;;;;;;4902224;29;20095;-94
2023/12/05 08:29:45;;;;;;;11.77;5.55;;;4.50;99.90;;;;;;4927438;29;20028;-93
2023/12/05 08:32:15;;;;;;;16.85;5.35;;;4.50;99.90;;;;;;4896371;29;20028;-95
2023/12/05 08:34:41;;;;;;;16.45;5.55;;;4.50;99.90;;;;;;4886117;29;20043;-93
2023/12/05 08:37:07;;;;;;;15.60;5.18;;;4.50;99.90;;;;;;4909553;29;20028;-94
2023/12/05 08:39:33;;;;;;;15.73;5.18;;;4.50;99.90;;;;;;4919214;29;20032;-94
2023/12/05 08:42:00;;;;;;;13.05;4.82;;;4.40;99.90;;;;;;4899940;29;20028;-93
2023/12/05 08:44:27;;;;;;;15.88;5.40;;;4.50;99.90;;;;;;4916796;29;20028;-93
2023/12/05 08:46:53;;;;;;;19.58;5.43;;;4.40;99.90;;;;;;4898792;29;20028;-94
2023/12/05 08:49:21;;;;;;;14.65;5.88;;;4.40;99.90;;;;;;4900533;29;20088;-93
2023/12/05 08:51:49;;;;;;;11.27;5.50;;;4.40;99.90;;;;;;4933154;29;20035;-94
2023/12/05 08:54:20;;;;;;;16.83;5.35;;;4.40;99.90;;;;;;4897923;29;20024;-94
2023/12/05 08:56:46;;;;;;;12.35;5.75;;;4.40;99.90;;;;;;4901518;29;20119;-94
2023/12/05 08:59:12;;;;;;;17.63;5.53;;;4.40;99.90;;;;;;4901852;29;20175;-93
2023/12/05 09:01:38;;;;;;;14.18;5.43;;;4.40;99.90;;;;;;4901899;29;20032;-90
2023/12/05 09:04:05;;;;;;;14.88;6.35;;;4.40;99.90;;;;;;4905016;29;20038;-91
2023/12/05 09:06:31;;;;;;;18.63;5.97;;;4.40;99.90;;;;;;4890486;29;20122;-93
2023/12/05 09:08:58;;;;;;;14.25;5.97;;;4.40;99.90;;;;;;4901990;29;20095;-93
2023/12/05 09:11:26;;;;;;;15.15;6.22;;;4.50;99.90;;;;;;4907835;29;20035;-94
2023/12/05 09:13:53;;;;;;;13.27;6.43;;;4.50;99.90;;;;;;4912052;29;20100;-93
2023/12/05 09:16:20;;;;;;;11.13;5.78;;;4.50;99.90;;;;;;4914793;29;20040;-93
2023/12/05 09:18:45;;;;;;;10.27;5.07;;;4.50;99.90;;;;;;4938177;29;20058;-93
2023/12/05 09:21:12;;;;;;;14.55;5.30;;;4.50;99.90;;;;;;4936882;29;20027;-92
2023/12/05 09:23:39;;;;;;;7.57;3.90;;;4.50;99.90;;;;;;4941474;29;20040;-93
2023/12/05 09:26:04;;;;;;;17.42;4.70;;;4.50;99.90;;;;;;4926188;29;20137;-95
2023/12/05 09:28:32;;;;;;;9.10;3.30;;;4.50;99.90;;;;;;4923163;29;20055;-95
2023/12/05 09:30:58;;;;;;;9.68;3.75;;;4.60;99.90;;;;;;4926775;29;20054;-95
2023/12/05 09:33:23;;;;;;;8.35;3.45;;;4.50;99.90;;;;;;4940869;29;20023;-95
2023/12/05 09:35:49;;;;;;;10.35;3.40;;;4.50;99.90;;;;;;4925722;29;20123;-92
2023/12/05 09:38:15;;;;;;;4.68;3.08;;;4.60;99.90;;;;;;4931710;29;20403;-94
2023/12/05 09:40:41;;;;;;;7.00;2.70;;;4.60;99.90;;;;;;4920680;29;20031;-93
2023/12/05 09:43:08;;;;;;;8.50;3.03;;;4.60;99.90;;;;;;4920386;29;20027;-94
2023/12/05 09:45:43;;;;;;;9.20;2.90;;;4.60;99.90;;;;;;4925947;29;20028;-96
2023/12/05 09:48:17;;;;;;;8.45;2.45;;;4.60;99.90;;;;;;4916517;29;20031;-95
2023/12/05 09:50:43;;;;;;;10.70;3.13;;;4.60;99.90;;;;;;4919676;29;20035;-93
2023/12/05 09:53:10;;;;;;;5.10;2.63;;;4.60;99.90;;;;;;4924341;29;20044;-94
2023/12/05 09:55:38;;;;;;;6.95;3.10;;;4.60;99.90;;;;;;4932147;29;20102;-93
2023/12/05 09:58:04;;;;;;;8.32;3.53;;;4.70;99.90;;;;;;4927856;29;20513;-93
2023/12/05 10:00:30;;;;;;;4.85;2.55;;;4.70;99.90;;;;;;4928145;29;20031;-93
2023/12/05 10:03:03;;;;;;;6.70;2.60;;;4.70;99.90;;;;;;4950082;28;20487;-94
2023/12/05 10:05:32;;;;;;;11.52;2.90;;;4.70;99.90;;;;;;4946526;29;20029;-95
2023/12/05 10:08:11;;;;;;;7.25;2.67;;;4.70;99.90;;;;;;4953455;28;20039;-92
2023/12/05 10:10:47;;;;;;;8.23;2.80;;;4.70;99.90;;;;;;4930089;29;20081;-95
2023/12/05 10:13:12;;;;;;;7.50;2.42;;;4.70;99.90;;;;;;4929540;29;20049;-93
2023/12/05 10:15:43;;;;;;;4.70;1.85;;;4.70;99.90;;;;;;4929471;29;20044;-94
2023/12/05 10:18:10;;;;;;;5.20;2.67;;;4.70;99.90;;;;;;4931294;29;20499;-93
2023/12/05 10:20:39;;;;;;;7.03;2.65;;;4.70;99.90;;;;;;4944350;29;20102;-92
2023/12/05 10:23:05;;;;;;;4.20;1.80;;;4.70;99.90;;;;;;4955058;28;20028;-93
2023/12/05 10:25:34;;;;;;;2.85;1.20;;;4.70;99.90;;;;;;4930487;29;20028;-93
2023/12/05 10:28:08;;;;;;;2.17;1.40;;;4.70;99.90;;;;;;4936069;29;20023;-92
2023/12/05 10:30:37;;;;;;;2.40;1.38;;;4.70;99.90;;;;;;4932336;29;20086;-92
2023/12/05 10:33:14;;;;;;;4.32;1.55;;;4.70;99.90;;;;;;4932594;29;20023;-94
2023/12/05 10:35:55;;;;;;;2.70;1.42;;;4.70;99.90;;;;;;4935629;29;20170;-93
2023/12/05 10:38:21;;;;;;;3.53;1.80;;;4.70;99.90;;;;;;4955664;28;20031;-93
2023/12/05 10:40:57;;;;;;;6.63;2.70;;;4.70;99.90;;;;;;4943700;29;20038;-93
2023/12/05 10:43:25;;;;;;;4.95;3.03;;;4.70;99.90;;;;;;4958468;29;20023;-93
2023/12/05 10:45:56;;;;;;;6.93;3.30;;;4.70;99.90;;;;;;4937073;29;20028;-94
2023/12/05 10:48:25;;;;;;;6.35;3.25;;;4.70;99.90;;;;;;4936043;29;20031;-93
2023/12/05 10:50:51;;;;;;;8.25;3.17;;;4.70;99.90;;;;;;4927443;29;20024;-93
2023/12/05 10:53:18;;;;;;;12.25;3.00;;;4.80;99.90;;;;;;4929572;29;20060;-93
2023/12/05 10:55:44;;;;;;;7.50;2.78;;;4.80;99.90;;;;;;4921286;29;20043;-93
2023/12/05 10:58:14;;;;;;;3.50;2.58;;;4.80;99.90;;;;;;4924656;29;20024;-93
2023/12/05 11:00:43;;;;;;;4.32;2.30;;;4.80;99.90;;;;;;4928107;29;20028;-95
2023/12/05 11:03:12;;;;;;;4.43;2.05;;;4.90;99.90;;;;;;4927372;29;20483;-92
2023/12/05 11:05:38;;;;;;;4.43;2.50;;;4.90;99.90;;;;;;4927361;29;20462;-93
2023/12/05 11:08:04;;;;;;;4.10;2.83;;;4.90;99.90;;;;;;4925059;29;20019;-93
2023/12/05 11:10:32;;;;;;;5.25;3.05;;;4.90;99.90;;;;;;4953187;29;20023;-94
2023/12/05 11:13:01;;;;;;;5.03;2.97;;;4.90;99.90;;;;;;4929603;29;20091;-93
2023/12/05 11:15:38;;;;;;;4.20;2.88;;;5.00;99.90;;;;;;4930428;29;20066;-95
2023/12/05 11:18:34;;;;;;;7.72;3.00;;;5.00;99.90;;;;;;4941424;29;20179;-92
2023/12/05 11:21:18;;;;;;;5.28;3.15;;;5.00;99.90;;;;;;4933865;29;20175;-94
2023/12/05 11:24:23;;;;;;;7.60;3.33;;;5.00;99.90;;;;;;4928504;29;20036;-95
2023/12/05 11:26:55;;;;;;;6.45;2.78;;;5.00;99.90;;;;;;4924470;29;20024;-94
2023/12/05 11:29:34;;;;;;;8.02;2.95;;;5.00;99.90;;;;;;4937784;29;20034;-93
2023/12/05 11:32:31;;;;;;;7.65;3.10;;;5.00;99.90;;;;;;4931573;29;20035;-93
2023/12/05 11:35:16;;;;;;;5.45;2.80;;;4.90;99.90;;;;;;4947612;29;20039;-94
2023/12/05 11:38:04;;;;;;;6.30;2.38;;;4.90;99.90;;;;;;4931752;29;20032;-94
2023/12/05 11:40:30;;;;;;;7.15;2.20;;;4.90;99.90;;;;;;4943141;29;20107;-94
2023/12/05 11:43:12;;;;;;;5.05;2.42;;;4.90;99.90;;;;;;4929258;29;20508;-93
2023/12/05 11:45:41;;;;;;;4.82;2.75;;;4.90;99.90;;;;;;4928749;29;20479;-93
2023/12/05 11:48:10;;;;;;;6.32;2.20;;;4.90;99.90;;;;;;4929389;29;20105;-94
2023/12/05 11:50:43;;;;;;;5.50;2.22;;;4.90;99.90;;;;;;4928870;29;20019;-93
2023/12/05 11:53:11;;;;;;;4.20;2.00;;;4.90;99.90;;;;;;4931596;29;20032;-93
2023/12/05 11:55:46;;;;;;;4.05;1.85;;;4.90;99.90;;;;;;4936854;29;20039;-92
2023/12/05 11:58:29;;;;;;;4.03;1.75;;;4.80;99.90;;;;;;4938899;29;20119;-93
2023/12/05 12:01:09;;;;;;;2.20;1.52;;;4.80;99.90;;;;;;4924716;29;20031;-92
2023/12/05 12:03:47;;;;;;;2.80;1.70;;;4.80;99.90;;;;;;4948966;28;20027;-93
2023/12/05 12:06:18;;;;;;;1.60;1.30;;;4.90;99.90;;;;;;4933445;29;20024;-92
2023/12/05 12:08:48;;;;;;;4.03;1.50;;;4.80;99.90;;;;;;4927077;29;20031;-93
2023/12/05 12:11:14;;;;;;;5.22;1.50;;;4.80;99.90;;;;;;4931269;29;20051;-94
2023/12/05 12:13:40;;;;;;;3.92;1.20;;;4.80;99.90;;;;;;4938163;29;20031;-95
2023/12/05 12:16:05;;;;;;;4.60;1.40;;;4.90;99.90;;;;;;4944663;29;20066;-95
2023/12/05 12:18:31;;;;;;;2.35;1.00;;;4.90;99.90;;;;;;4943079;29;20051;-96
2023/12/05 12:20:58;;;;;;;4.35;1.27;;;4.90;99.90;;;;;;4940574;29;20487;-95
2023/12/05 12:23:23;;;;;;;1.63;1.10;;;4.90;99.90;;;;;;4951687;29;20038;-95
2023/12/05 12:25:57;;;;;;;2.17;1.20;;;4.90;99.90;;;;;;4949486;28;20023;-92
2023/12/05 12:28:30;;;;;;;1.95;1.10;;;4.90;99.90;;;;;;4941487;29;20035;-95
2023/12/05 12:30:57;;;;;;;1.05;0.75;;;4.90;99.90;;;;;;4964754;29;20035;-91
2023/12/05 12:33:28;;;;;;;4.05;1.73;;;4.90;99.90;;;;;;4947264;29;20047;-93
2023/12/05 12:35:54;;;;;;;7.55;1.73;;;4.90;99.90;;;;;;4933069;29;20044;-95
2023/12/05 12:38:20;;;;;;;8.00;1.75;;;4.90;99.90;;;;;;4926887;29;20028;-93
2023/12/05 12:40:48;;;;;;;5.68;1.95;;;4.90;99.90;;;;;;4931111;29;20055;-94
2023/12/05 12:43:14;;;;;;;5.20;1.80;;;4.90;99.90;;;;;;4932019;29;20028;-94
2023/12/05 12:45:40;;;;;;;5.38;1.58;;;4.90;99.90;;;;;;4936057;29;20015;-92
2023/12/05 12:48:06;;;;;;;5.63;1.95;;;5.00;99.90;;;;;;4934521;29;20055;-94
2023/12/05 12:50:32;;;;;;;7.25;2.17;;;5.00;99.90;;;;;;4931348;29;20677;-95
2023/12/05 12:53:00;;;;;;;4.95;1.60;;;5.00;99.90;;;;;;4919841;29;20491;-93
2023/12/05 12:55:26;;;;;;;12.80;1.92;;;5.10;99.90;;;;;;4930064;29;20067;-95
2023/12/05 12:57:55;;;;;;;3.08;1.30;;;5.10;99.90;;;;;;4925174;29;20027;-92